sensor_id;sensor_type;location;lat;lon;timestamp;temperature;humidity
1568;DHT22;777;47.156;8.326;2023-05-07T00:00:49;12.80;99.90
1568;DHT22;777;47.156;8.326;2023-05-07T00:03:16;12.90;99.90
1568;DHT22;777;47.156;8.326;2023-05-07T00:05:44;12.60;99.90
1568;DHT22;777;47.156;8.326;2023-05-07T00:08:12;12.50;99.90
1568;DHT22;777;47.156;8.326;2023-05-07T00:10:41;12.50;99.90
1568;DHT22;777;47.156;8.326;2023-05-07T00:13:08;12.60;99.90
1568;DHT22;777;47.156;8.326;2023-05-07T00:15:35;12.60;99.90
1568;DHT22;777;47.156;8.326;2023-05-07T00:18:02;12.60;99.90
1568;DHT22;777;47.156;8.326;2023-05-07T00:20:29;12.60;99.90
1568;DHT22;777;47.156;8.326;2023-05-07T00:22:56;12.60;99.90
1568;DHT22;777;47.156;8.326;2023-05-07T00:25:23;12.40;99.90
1568;DHT22;777;47.156;8.326;2023-05-07T00:27:52;12.30;99.90
1568;DHT22;777;47.156;8.326;2023-05-07T00:30:19;12.20;99.90
1568;DHT22;777;47.156;8.326;2023-05-07T00:32:46;12.30;99.90
1568;DHT22;777;47.156;8.326;2023-05-07T00:35:14;12.30;99.90
1568;DHT22;777;47.156;8.326;2023-05-07T00:37:41;12.30;99.90
1568;DHT22;777;47.156;8.326;2023-05-07T00:40:09;12.20;99.90
1568;DHT22;777;47.156;8.326;2023-05-07T00:42:36;12.20;99.90
1568;DHT22;777;47.156;8.326;2023-05-07T00:45:05;12.30;99.90
1568;DHT22;777;47.156;8.326;2023-05-07T00:47:34;12.30;99.90
1568;DHT22;777;47.156;8.326;2023-05-07T00:50:03;12.30;99.90
1568;DHT22;777;47.156;8.326;2023-05-07T00:52:31;12.10;99.90
1568;DHT22;777;47.156;8.326;2023-05-07T00:54:59;12.10;99.90
1568;DHT22;777;47.156;8.326;2023-05-07T00:57:33;12.00;99.90
1568;DHT22;777;47.156;8.326;2023-05-07T01:00:03;12.10;99.90
1568;DHT22;777;47.156;8.326;2023-05-07T01:02:31;12.10;99.90
1568;DHT22;777;47.156;8.326;2023-05-07T01:04:58;12.10;99.90
1568;DHT22;777;47.156;8.326;2023-05-07T01:07:25;12.10;99.90
1568;DHT22;777;47.156;8.326;2023-05-07T01:09:52;12.10;99.90
1568;DHT22;777;47.156;8.326;2023-05-07T01:12:20;12.00;99.90
1568;DHT22;777;47.156;8.326;2023-05-07T01:14:49;11.90;99.90
1568;DHT22;777;47.156;8.326;2023-05-07T01:17:17;11.90;99.90
1568;DHT22;777;47.156;8.326;2023-05-07T01:19:46;11.90;99.90
1568;DHT22;777;47.156;8.326;2023-05-07T01:22:15;11.80;99.90
1568;DHT22;777;47.156;8.326;2023-05-07T01:24:50;11.90;99.90
1568;DHT22;777;47.156;8.326;2023-05-07T01:27:17;11.80;99.90
1568;DHT22;777;47.156;8.326;2023-05-07T01:29:46;11.50;99.90
1568;DHT22;777;47.156;8.326;2023-05-07T01:32:13;11.50;99.90
1568;DHT22;777;47.156;8.326;2023-05-07T01:34:43;11.50;99.90
1568;DHT22;777;47.156;8.326;2023-05-07T01:37:11;11.60;99.90
1568;DHT22;777;47.156;8.326;2023-05-07T01:39:39;11.70;99.90
1568;DHT22;777;47.156;8.326;2023-05-07T01:42:07;11.70;99.90
1568;DHT22;777;47.156;8.326;2023-05-07T01:44:35;11.70;99.90
1568;DHT22;777;47.156;8.326;2023-05-07T01:47:03;11.60;99.90
1568;DHT22;777;47.156;8.326;2023-05-07T01:49:30;11.50;99.90
1568;DHT22;777;47.156;8.326;2023-05-07T01:51:57;11.40;99.90
1568;DHT22;777;47.156;8.326;2023-05-07T01:54:25;11.40;99.90
1568;DHT22;777;47.156;8.326;2023-05-07T01:56:56;11.40;99.90
1568;DHT22;777;47.156;8.326;2023-05-07T01:59:24;11.40;99.90
1568;DHT22;777;47.156;8.326;2023-05-07T02:01:51;11.40;99.90
1568;DHT22;777;47.156;8.326;2023-05-07T02:04:19;11.50;99.90
1568;DHT22;777;47.156;8.326;2023-05-07T02:06:46;11.50;99.90
1568;DHT22;777;47.156;8.326;2023-05-07T02:09:14;11.70;99.90
1568;DHT22;777;47.156;8.326;2023-05-07T02:11:43;11.50;99.90
1568;DHT22;777;47.156;8.326;2023-05-07T02:14:10;11.40;99.90
1568;DHT22;777;47.156;8.326;2023-05-07T02:16:39;11.50;99.90
1568;DHT22;777;47.156;8.326;2023-05-07T02:19:06;11.40;99.90
1568;DHT22;777;47.156;8.326;2023-05-07T02:21:33;11.40;99.90
1568;DHT22;777;47.156;8.326;2023-05-07T02:24:00;11.50;99.90
1568;DHT22;777;47.156;8.326;2023-05-07T02:26:27;11.40;99.90
1568;DHT22;777;47.156;8.326;2023-05-07T02:28:54;11.30;99.90
1568;DHT22;777;47.156;8.326;2023-05-07T02:31:21;11.30;99.90
1568;DHT22;777;47.156;8.326;2023-05-07T02:33:50;11.30;99.90
1568;DHT22;777;47.156;8.326;2023-05-07T02:36:17;11.40;99.90
1568;DHT22;777;47.156;8.326;2023-05-07T02:38:53;11.40;99.90
1568;DHT22;777;47.156;8.326;2023-05-07T02:41:20;11.40;99.90
1568;DHT22;777;47.156;8.326;2023-05-07T02:43:47;11.40;99.90
1568;DHT22;777;47.156;8.326;2023-05-07T02:46:14;11.30;99.90
1568;DHT22;777;47.156;8.326;2023-05-07T02:48:46;11.40;99.90
1568;DHT22;777;47.156;8.326;2023-05-07T02:51:14;11.30;99.90
1568;DHT22;777;47.156;8.326;2023-05-07T02:53:42;11.10;99.90
1568;DHT22;777;47.156;8.326;2023-05-07T02:56:09;11.00;99.90
1568;DHT22;777;47.156;8.326;2023-05-07T02:58:36;11.00;99.90
1568;DHT22;777;47.156;8.326;2023-05-07T03:01:05;11.00;99.90
1568;DHT22;777;47.156;8.326;2023-05-07T03:03:39;11.20;99.90
1568;DHT22;777;47.156;8.326;2023-05-07T03:06:06;11.30;99.90
1568;DHT22;777;47.156;8.326;2023-05-07T03:08:35;11.10;99.90
1568;DHT22;777;47.156;8.326;2023-05-07T03:11:03;11.10;99.90
1568;DHT22;777;47.156;8.326;2023-05-07T03:13:30;11.10;99.90
1568;DHT22;777;47.156;8.326;2023-05-07T03:15:57;11.10;99.90
1568;DHT22;777;47.156;8.326;2023-05-07T03:18:24;11.20;99.90
1568;DHT22;777;47.156;8.326;2023-05-07T03:20:52;11.20;99.90
1568;DHT22;777;47.156;8.326;2023-05-07T03:23:19;11.20;99.90
1568;DHT22;777;47.156;8.326;2023-05-07T03:25:47;11.20;99.90
1568;DHT22;777;47.156;8.326;2023-05-07T03:28:15;11.20;99.90
1568;DHT22;777;47.156;8.326;2023-05-07T03:30:48;11.20;99.90
1568;DHT22;777;47.156;8.326;2023-05-07T03:33:15;10.80;99.90
1568;DHT22;777;47.156;8.326;2023-05-07T03:35:42;10.70;99.90
1568;DHT22;777;47.156;8.326;2023-05-07T03:38:10;10.60;99.90
1568;DHT22;777;47.156;8.326;2023-05-07T03:40:37;10.60;99.90
1568;DHT22;777;47.156;8.326;2023-05-07T03:43:06;10.80;99.90
1568;DHT22;777;47.156;8.326;2023-05-07T03:45:36;10.90;99.90
1568;DHT22;777;47.156;8.326;2023-05-07T03:48:09;10.90;99.90
1568;DHT22;777;47.156;8.326;2023-05-07T03:50:37;10.70;99.90
1568;DHT22;777;47.156;8.326;2023-05-07T03:53:05;10.70;99.90
1568;DHT22;777;47.156;8.326;2023-05-07T03:55:36;10.70;99.90
1568;DHT22;777;47.156;8.326;2023-05-07T03:58:05;10.40;99.90
1568;DHT22;777;47.156;8.326;2023-05-07T04:00:33;10.40;99.90
1568;DHT22;777;47.156;8.326;2023-05-07T04:03:08;10.60;99.90
1568;DHT22;777;47.156;8.326;2023-05-07T04:05:35;10.70;99.90
1568;DHT22;777;47.156;8.326;2023-05-07T04:08:03;10.70;99.90
1568;DHT22;777;47.156;8.326;2023-05-07T04:10:44;10.70;99.90
1568;DHT22;777;47.156;8.326;2023-05-07T04:13:13;10.70;99.90
1568;DHT22;777;47.156;8.326;2023-05-07T04:15:41;10.80;99.90
1568;DHT22;777;47.156;8.326;2023-05-07T04:18:10;10.80;99.90
1568;DHT22;777;47.156;8.326;2023-05-07T04:20:38;10.80;99.90
1568;DHT22;777;47.156;8.326;2023-05-07T04:23:09;10.80;99.90
1568;DHT22;777;47.156;8.326;2023-05-07T04:25:36;10.80;99.90
1568;DHT22;777;47.156;8.326;2023-05-07T04:28:12;10.60;99.90
1568;DHT22;777;47.156;8.326;2023-05-07T04:30:40;10.50;99.90
1568;DHT22;777;47.156;8.326;2023-05-07T04:33:08;10.50;99.90
1568;DHT22;777;47.156;8.326;2023-05-07T04:35:36;10.50;99.90
1568;DHT22;777;47.156;8.326;2023-05-07T04:38:04;10.70;99.90
1568;DHT22;777;47.156;8.326;2023-05-07T04:40:32;10.70;99.90
1568;DHT22;777;47.156;8.326;2023-05-07T04:43:01;10.80;99.90
1568;DHT22;777;47.156;8.326;2023-05-07T04:45:32;10.80;99.90
1568;DHT22;777;47.156;8.326;2023-05-07T04:48:00;10.80;99.90
1568;DHT22;777;47.156;8.326;2023-05-07T04:50:28;11.00;99.90
1568;DHT22;777;47.156;8.326;2023-05-07T04:52:59;11.10;99.90
1568;DHT22;777;47.156;8.326;2023-05-07T04:55:27;11.30;99.90
1568;DHT22;777;47.156;8.326;2023-05-07T04:57:54;11.50;99.90
1568;DHT22;777;47.156;8.326;2023-05-07T05:00:21;11.70;99.90
1568;DHT22;777;47.156;8.326;2023-05-07T05:02:52;11.80;99.90
1568;DHT22;777;47.156;8.326;2023-05-07T05:05:21;12.10;99.90
1568;DHT22;777;47.156;8.326;2023-05-07T05:07:50;12.50;99.90
1568;DHT22;777;47.156;8.326;2023-05-07T05:10:19;13.00;99.90
1568;DHT22;777;47.156;8.326;2023-05-07T05:12:46;13.50;99.90
1568;DHT22;777;47.156;8.326;2023-05-07T05:15:14;14.00;99.90
1568;DHT22;777;47.156;8.326;2023-05-07T05:17:41;14.40;99.90
1568;DHT22;777;47.156;8.326;2023-05-07T05:20:10;15.00;99.90
1568;DHT22;777;47.156;8.326;2023-05-07T05:22:39;15.50;99.90
1568;DHT22;777;47.156;8.326;2023-05-07T05:25:07;16.10;99.90
1568;DHT22;777;47.156;8.326;2023-05-07T05:27:34;16.70;99.90
1568;DHT22;777;47.156;8.326;2023-05-07T05:30:02;17.10;99.90
1568;DHT22;777;47.156;8.326;2023-05-07T05:32:30;17.50;99.90
1568;DHT22;777;47.156;8.326;2023-05-07T05:34:57;17.90;99.90
1568;DHT22;777;47.156;8.326;2023-05-07T05:37:26;18.40;99.90
1568;DHT22;777;47.156;8.326;2023-05-07T05:39:54;18.70;99.90
1568;DHT22;777;47.156;8.326;2023-05-07T05:42:21;18.70;99.90
1568;DHT22;777;47.156;8.326;2023-05-07T05:44:48;18.80;99.90
1568;DHT22;777;47.156;8.326;2023-05-07T05:47:15;19.00;99.90
1568;DHT22;777;47.156;8.326;2023-05-07T05:49:43;19.20;99.90
1568;DHT22;777;47.156;8.326;2023-05-07T05:52:14;19.40;99.90
1568;DHT22;777;47.156;8.326;2023-05-07T05:54:44;20.10;99.90
1568;DHT22;777;47.156;8.326;2023-05-07T05:57:11;20.30;99.90
1568;DHT22;777;47.156;8.326;2023-05-07T05:59:38;20.60;99.90
1568;DHT22;777;47.156;8.326;2023-05-07T06:02:06;20.60;99.90
1568;DHT22;777;47.156;8.326;2023-05-07T06:04:33;20.40;99.90
1568;DHT22;777;47.156;8.326;2023-05-07T06:07:01;20.10;99.90
1568;DHT22;777;47.156;8.326;2023-05-07T06:09:28;19.70;99.90
1568;DHT22;777;47.156;8.326;2023-05-07T06:11:56;19.50;99.90
1568;DHT22;777;47.156;8.326;2023-05-07T06:14:23;19.60;99.90
1568;DHT22;777;47.156;8.326;2023-05-07T06:16:51;19.80;99.90
1568;DHT22;777;47.156;8.326;2023-05-07T06:19:18;19.80;99.90
1568;DHT22;777;47.156;8.326;2023-05-07T06:21:49;19.60;99.90
1568;DHT22;777;47.156;8.326;2023-05-07T06:24:16;19.30;99.90
1568;DHT22;777;47.156;8.326;2023-05-07T06:26:43;18.60;99.90
1568;DHT22;777;47.156;8.326;2023-05-07T06:29:11;17.80;99.90
1568;DHT22;777;47.156;8.326;2023-05-07T06:31:40;17.40;99.90
1568;DHT22;777;47.156;8.326;2023-05-07T06:34:09;17.10;99.90
1568;DHT22;777;47.156;8.326;2023-05-07T06:36:40;16.80;99.90
1568;DHT22;777;47.156;8.326;2023-05-07T06:39:30;16.60;99.90
1568;DHT22;777;47.156;8.326;2023-05-07T06:41:58;16.60;99.90
1568;DHT22;777;47.156;8.326;2023-05-07T06:44:31;16.50;99.90
1568;DHT22;777;47.156;8.326;2023-05-07T06:47:07;16.40;99.90
1568;DHT22;777;47.156;8.326;2023-05-07T06:49:38;16.00;99.90
1568;DHT22;777;47.156;8.326;2023-05-07T06:52:05;15.50;99.90
1568;DHT22;777;47.156;8.326;2023-05-07T06:54:32;15.20;99.90
1568;DHT22;777;47.156;8.326;2023-05-07T06:57:02;15.00;99.90
1568;DHT22;777;47.156;8.326;2023-05-07T06:59:31;14.90;99.90
1568;DHT22;777;47.156;8.326;2023-05-07T07:01:59;14.90;99.90
1568;DHT22;777;47.156;8.326;2023-05-07T07:04:26;14.80;99.90
1568;DHT22;777;47.156;8.326;2023-05-07T07:07:01;14.80;99.90
1568;DHT22;777;47.156;8.326;2023-05-07T07:09:29;14.90;99.90
1568;DHT22;777;47.156;8.326;2023-05-07T07:11:56;15.00;99.90
1568;DHT22;777;47.156;8.326;2023-05-07T07:14:23;14.90;99.90
1568;DHT22;777;47.156;8.326;2023-05-07T07:16:54;14.90;99.90
1568;DHT22;777;47.156;8.326;2023-05-07T07:19:22;14.70;99.90
1568;DHT22;777;47.156;8.326;2023-05-07T07:21:52;14.70;99.90
1568;DHT22;777;47.156;8.326;2023-05-07T07:24:19;14.70;99.90
1568;DHT22;777;47.156;8.326;2023-05-07T07:26:49;14.70;99.90
1568;DHT22;777;47.156;8.326;2023-05-07T07:29:17;14.90;99.90
1568;DHT22;777;47.156;8.326;2023-05-07T07:31:48;14.90;99.90
1568;DHT22;777;47.156;8.326;2023-05-07T07:34:17;15.10;99.90
1568;DHT22;777;47.156;8.326;2023-05-07T07:36:44;15.20;99.90
1568;DHT22;777;47.156;8.326;2023-05-07T07:39:13;15.20;99.90
1568;DHT22;777;47.156;8.326;2023-05-07T07:41:40;15.30;99.90
1568;DHT22;777;47.156;8.326;2023-05-07T07:44:07;15.30;99.90
1568;DHT22;777;47.156;8.326;2023-05-07T07:46:36;15.30;99.90
1568;DHT22;777;47.156;8.326;2023-05-07T07:49:03;15.40;99.90
1568;DHT22;777;47.156;8.326;2023-05-07T07:51:35;15.50;99.90
1568;DHT22;777;47.156;8.326;2023-05-07T07:54:02;15.70;99.90
1568;DHT22;777;47.156;8.326;2023-05-07T07:56:32;15.70;99.90
1568;DHT22;777;47.156;8.326;2023-05-07T07:59:00;15.90;99.90
1568;DHT22;777;47.156;8.326;2023-05-07T08:01:29;16.00;99.90
1568;DHT22;777;47.156;8.326;2023-05-07T08:03:57;16.10;99.90
1568;DHT22;777;47.156;8.326;2023-05-07T08:06:25;16.20;99.90
1568;DHT22;777;47.156;8.326;2023-05-07T08:08:54;16.60;99.90
1568;DHT22;777;47.156;8.326;2023-05-07T08:11:22;16.90;99.90
1568;DHT22;777;47.156;8.326;2023-05-07T08:13:49;17.50;99.90
1568;DHT22;777;47.156;8.326;2023-05-07T08:16:16;18.20;99.90
1568;DHT22;777;47.156;8.326;2023-05-07T08:18:44;18.40;99.90
1568;DHT22;777;47.156;8.326;2023-05-07T08:21:11;18.80;99.90
1568;DHT22;777;47.156;8.326;2023-05-07T08:23:38;19.20;99.90
1568;DHT22;777;47.156;8.326;2023-05-07T08:26:08;19.50;99.90
1568;DHT22;777;47.156;8.326;2023-05-07T08:28:36;19.80;99.90
1568;DHT22;777;47.156;8.326;2023-05-07T08:31:03;20.10;99.90
1568;DHT22;777;47.156;8.326;2023-05-07T08:33:34;20.40;99.90
1568;DHT22;777;47.156;8.326;2023-05-07T08:36:03;20.40;99.90
1568;DHT22;777;47.156;8.326;2023-05-07T08:38:30;19.90;99.90
1568;DHT22;777;47.156;8.326;2023-05-07T08:40:58;19.80;99.90
1568;DHT22;777;47.156;8.326;2023-05-07T08:43:27;20.40;99.90
1568;DHT22;777;47.156;8.326;2023-05-07T08:45:55;20.70;99.90
1568;DHT22;777;47.156;8.326;2023-05-07T08:48:29;20.80;99.90
1568;DHT22;777;47.156;8.326;2023-05-07T08:51:05;21.10;99.90
1568;DHT22;777;47.156;8.326;2023-05-07T08:53:33;21.50;99.90
1568;DHT22;777;47.156;8.326;2023-05-07T08:56:00;21.30;99.90
1568;DHT22;777;47.156;8.326;2023-05-07T08:58:31;21.10;99.90
1568;DHT22;777;47.156;8.326;2023-05-07T09:00:58;21.20;99.90
1568;DHT22;777;47.156;8.326;2023-05-07T09:03:27;20.80;99.90
1568;DHT22;777;47.156;8.326;2023-05-07T09:05:57;20.60;99.90
1568;DHT22;777;47.156;8.326;2023-05-07T09:08:27;20.30;99.90
1568;DHT22;777;47.156;8.326;2023-05-07T09:10:57;20.30;99.90
1568;DHT22;777;47.156;8.326;2023-05-07T09:13:24;20.00;99.90
1568;DHT22;777;47.156;8.326;2023-05-07T09:15:53;19.90;99.90
1568;DHT22;777;47.156;8.326;2023-05-07T09:18:20;20.40;99.90
1568;DHT22;777;47.156;8.326;2023-05-07T09:20:48;20.60;99.90
1568;DHT22;777;47.156;8.326;2023-05-07T09:23:18;20.60;99.90
1568;DHT22;777;47.156;8.326;2023-05-07T09:25:47;20.80;99.90
1568;DHT22;777;47.156;8.326;2023-05-07T09:28:20;20.90;99.90
1568;DHT22;777;47.156;8.326;2023-05-07T09:30:47;21.00;99.90
1568;DHT22;777;47.156;8.326;2023-05-07T09:33:16;21.10;99.90
1568;DHT22;777;47.156;8.326;2023-05-07T09:35:51;21.30;99.90
1568;DHT22;777;47.156;8.326;2023-05-07T09:38:20;21.60;99.90
1568;DHT22;777;47.156;8.326;2023-05-07T09:41:02;21.20;99.90
1568;DHT22;777;47.156;8.326;2023-05-07T09:43:32;20.80;99.90
1568;DHT22;777;47.156;8.326;2023-05-07T09:46:07;21.00;99.90
1568;DHT22;777;47.156;8.326;2023-05-07T09:48:37;21.10;99.90
1568;DHT22;777;47.156;8.326;2023-05-07T09:51:11;21.00;99.90
1568;DHT22;777;47.156;8.326;2023-05-07T09:53:45;20.60;99.90
1568;DHT22;777;47.156;8.326;2023-05-07T09:56:14;20.60;99.90
1568;DHT22;777;47.156;8.326;2023-05-07T09:58:42;20.70;99.90
1568;DHT22;777;47.156;8.326;2023-05-07T10:01:12;20.90;99.90
1568;DHT22;777;47.156;8.326;2023-05-07T10:03:43;21.50;99.90
1568;DHT22;777;47.156;8.326;2023-05-07T10:06:12;21.60;99.90
1568;DHT22;777;47.156;8.326;2023-05-07T10:08:40;22.00;99.90
1568;DHT22;777;47.156;8.326;2023-05-07T10:11:09;22.40;99.90
1568;DHT22;777;47.156;8.326;2023-05-07T10:13:37;23.40;99.90
1568;DHT22;777;47.156;8.326;2023-05-07T10:16:06;24.00;99.90
1568;DHT22;777;47.156;8.326;2023-05-07T10:18:43;24.10;99.90
1568;DHT22;777;47.156;8.326;2023-05-07T10:21:18;24.40;99.90
1568;DHT22;777;47.156;8.326;2023-05-07T10:23:53;24.80;99.90
1568;DHT22;777;47.156;8.326;2023-05-07T10:26:23;25.00;99.90
1568;DHT22;777;47.156;8.326;2023-05-07T10:28:54;24.90;99.90
1568;DHT22;777;47.156;8.326;2023-05-07T10:31:55;25.00;99.90
1568;DHT22;777;47.156;8.326;2023-05-07T10:34:34;24.60;99.90
1568;DHT22;777;47.156;8.326;2023-05-07T10:37:03;24.20;99.90
1568;DHT22;777;47.156;8.326;2023-05-07T10:39:31;24.10;99.90
1568;DHT22;777;47.156;8.326;2023-05-07T10:42:07;23.90;99.90
1568;DHT22;777;47.156;8.326;2023-05-07T10:44:35;23.50;99.90
1568;DHT22;777;47.156;8.326;2023-05-07T10:47:07;23.20;99.90
1568;DHT22;777;47.156;8.326;2023-05-07T10:53:20;22.90;99.90
1568;DHT22;777;47.156;8.326;2023-05-07T10:56:26;22.90;99.90
1568;DHT22;777;47.156;8.326;2023-05-07T10:59:33;23.30;99.90
1568;DHT22;777;47.156;8.326;2023-05-07T11:02:15;23.50;99.90
1568;DHT22;777;47.156;8.326;2023-05-07T11:05:20;24.00;99.90
1568;DHT22;777;47.156;8.326;2023-05-07T11:07:58;24.50;99.90
1568;DHT22;777;47.156;8.326;2023-05-07T11:10:48;24.80;99.90
1568;DHT22;777;47.156;8.326;2023-05-07T11:13:42;25.00;99.90
1568;DHT22;777;47.156;8.326;2023-05-07T11:16:19;25.70;99.90
1568;DHT22;777;47.156;8.326;2023-05-07T11:18:51;26.30;99.90
1568;DHT22;777;47.156;8.326;2023-05-07T11:21:35;26.80;99.90
1568;DHT22;777;47.156;8.326;2023-05-07T11:24:39;27.00;99.90
1568;DHT22;777;47.156;8.326;2023-05-07T11:27:06;26.20;99.90
1568;DHT22;777;47.156;8.326;2023-05-07T11:29:33;26.30;99.90
1568;DHT22;777;47.156;8.326;2023-05-07T11:32:12;26.60;99.90
1568;DHT22;777;47.156;8.326;2023-05-07T11:34:51;27.10;99.90
1568;DHT22;777;47.156;8.326;2023-05-07T11:37:19;27.20;99.90
1568;DHT22;777;47.156;8.326;2023-05-07T11:40:02;27.70;99.90
1568;DHT22;777;47.156;8.326;2023-05-07T11:42:32;28.00;99.90
1568;DHT22;777;47.156;8.326;2023-05-07T11:45:00;28.10;99.90
1568;DHT22;777;47.156;8.326;2023-05-07T11:47:30;28.50;99.90
1568;DHT22;777;47.156;8.326;2023-05-07T11:50:02;28.80;99.90
1568;DHT22;777;47.156;8.326;2023-05-07T11:52:30;28.20;99.90
1568;DHT22;777;47.156;8.326;2023-05-07T11:54:59;28.20;99.90
1568;DHT22;777;47.156;8.326;2023-05-07T11:57:27;28.60;99.90
1568;DHT22;777;47.156;8.326;2023-05-07T11:59:54;29.00;99.90
1568;DHT22;777;47.156;8.326;2023-05-07T12:02:21;29.10;99.90
1568;DHT22;777;47.156;8.326;2023-05-07T12:04:50;29.40;99.90
1568;DHT22;777;47.156;8.326;2023-05-07T12:07:17;29.50;99.90
1568;DHT22;777;47.156;8.326;2023-05-07T12:09:45;29.00;99.90
1568;DHT22;777;47.156;8.326;2023-05-07T12:12:14;28.80;99.90
1568;DHT22;777;47.156;8.326;2023-05-07T12:14:44;28.30;99.90
1568;DHT22;777;47.156;8.326;2023-05-07T12:17:12;28.60;99.90
1568;DHT22;777;47.156;8.326;2023-05-07T12:19:40;28.50;99.90
1568;DHT22;777;47.156;8.326;2023-05-07T12:22:09;28.00;99.90
1568;DHT22;777;47.156;8.326;2023-05-07T12:24:44;27.10;99.90
1568;DHT22;777;47.156;8.326;2023-05-07T12:27:11;26.50;99.90
1568;DHT22;777;47.156;8.326;2023-05-07T12:29:39;25.90;99.90
1568;DHT22;777;47.156;8.326;2023-05-07T12:32:13;25.30;99.90
1568;DHT22;777;47.156;8.326;2023-05-07T12:34:40;25.10;99.90
1568;DHT22;777;47.156;8.326;2023-05-07T12:37:07;24.90;99.90
1568;DHT22;777;47.156;8.326;2023-05-07T12:39:34;24.60;99.90
1568;DHT22;777;47.156;8.326;2023-05-07T12:42:01;24.40;99.90
1568;DHT22;777;47.156;8.326;2023-05-07T12:44:30;24.40;99.90
1568;DHT22;777;47.156;8.326;2023-05-07T12:47:01;24.20;99.90
1568;DHT22;777;47.156;8.326;2023-05-07T12:49:28;24.10;99.90
1568;DHT22;777;47.156;8.326;2023-05-07T12:51:55;24.20;99.90
1568;DHT22;777;47.156;8.326;2023-05-07T12:54:29;24.30;99.90
1568;DHT22;777;47.156;8.326;2023-05-07T12:57:03;24.40;99.90
1568;DHT22;777;47.156;8.326;2023-05-07T12:59:32;24.90;99.90
1568;DHT22;777;47.156;8.326;2023-05-07T13:02:01;25.10;99.90
1568;DHT22;777;47.156;8.326;2023-05-07T13:04:28;24.80;99.90
1568;DHT22;777;47.156;8.326;2023-05-07T13:06:55;24.40;99.90
1568;DHT22;777;47.156;8.326;2023-05-07T13:09:23;24.10;99.90
1568;DHT22;777;47.156;8.326;2023-05-07T13:11:51;23.80;99.90
1568;DHT22;777;47.156;8.326;2023-05-07T13:14:18;23.70;99.90
1568;DHT22;777;47.156;8.326;2023-05-07T13:16:46;23.40;99.90
1568;DHT22;777;47.156;8.326;2023-05-07T13:19:14;23.00;99.90
1568;DHT22;777;47.156;8.326;2023-05-07T13:21:41;22.80;99.90
1568;DHT22;777;47.156;8.326;2023-05-07T13:24:09;22.50;99.90
1568;DHT22;777;47.156;8.326;2023-05-07T13:26:36;22.20;99.90
1568;DHT22;777;47.156;8.326;2023-05-07T13:29:03;22.00;99.90
1568;DHT22;777;47.156;8.326;2023-05-07T13:31:30;21.80;99.90
1568;DHT22;777;47.156;8.326;2023-05-07T13:33:57;21.60;99.90
1568;DHT22;777;47.156;8.326;2023-05-07T13:36:25;21.20;99.90
1568;DHT22;777;47.156;8.326;2023-05-07T13:38:54;20.90;99.90
1568;DHT22;777;47.156;8.326;2023-05-07T13:41:21;20.50;99.90
1568;DHT22;777;47.156;8.326;2023-05-07T13:43:48;20.20;99.90
1568;DHT22;777;47.156;8.326;2023-05-07T13:46:15;19.90;99.90
1568;DHT22;777;47.156;8.326;2023-05-07T13:48:42;19.50;99.90
1568;DHT22;777;47.156;8.326;2023-05-07T13:51:09;19.30;99.90
1568;DHT22;777;47.156;8.326;2023-05-07T13:53:38;19.00;99.90
1568;DHT22;777;47.156;8.326;2023-05-07T13:56:05;18.80;99.90
1568;DHT22;777;47.156;8.326;2023-05-07T13:58:33;18.80;99.90
1568;DHT22;777;47.156;8.326;2023-05-07T14:01:02;18.80;99.90
1568;DHT22;777;47.156;8.326;2023-05-07T14:03:29;18.90;99.90
1568;DHT22;777;47.156;8.326;2023-05-07T14:05:57;18.80;99.90
1568;DHT22;777;47.156;8.326;2023-05-07T14:08:25;18.80;99.90
1568;DHT22;777;47.156;8.326;2023-05-07T14:10:54;18.60;99.90
1568;DHT22;777;47.156;8.326;2023-05-07T14:13:21;18.60;99.90
1568;DHT22;777;47.156;8.326;2023-05-07T14:15:48;18.60;99.90
1568;DHT22;777;47.156;8.326;2023-05-07T14:18:15;18.50;99.90
1568;DHT22;777;47.156;8.326;2023-05-07T14:20:43;18.50;99.90
1568;DHT22;777;47.156;8.326;2023-05-07T14:23:12;18.40;99.90
1568;DHT22;777;47.156;8.326;2023-05-07T14:25:40;18.30;99.90
1568;DHT22;777;47.156;8.326;2023-05-07T14:28:10;18.20;99.90
1568;DHT22;777;47.156;8.326;2023-05-07T14:30:38;18.30;99.90
1568;DHT22;777;47.156;8.326;2023-05-07T14:33:05;18.20;99.90
1568;DHT22;777;47.156;8.326;2023-05-07T14:35:33;18.10;99.90
1568;DHT22;777;47.156;8.326;2023-05-07T14:38:00;18.10;99.90
1568;DHT22;777;47.156;8.326;2023-05-07T14:40:27;18.10;99.90
1568;DHT22;777;47.156;8.326;2023-05-07T14:42:54;18.00;99.90
1568;DHT22;777;47.156;8.326;2023-05-07T14:45:24;17.90;99.90
1568;DHT22;777;47.156;8.326;2023-05-07T14:47:52;17.80;99.90
1568;DHT22;777;47.156;8.326;2023-05-07T14:50:20;17.60;99.90
1568;DHT22;777;47.156;8.326;2023-05-07T14:52:47;17.50;99.90
1568;DHT22;777;47.156;8.326;2023-05-07T14:55:14;17.40;99.90
1568;DHT22;777;47.156;8.326;2023-05-07T14:57:41;17.20;99.90
1568;DHT22;777;47.156;8.326;2023-05-07T15:00:09;17.10;99.90
1568;DHT22;777;47.156;8.326;2023-05-07T15:02:38;17.10;99.90
1568;DHT22;777;47.156;8.326;2023-05-07T15:05:06;17.10;99.90
1568;DHT22;777;47.156;8.326;2023-05-07T15:07:34;17.20;99.90
1568;DHT22;777;47.156;8.326;2023-05-07T15:10:01;17.10;99.90
1568;DHT22;777;47.156;8.326;2023-05-07T15:12:28;17.10;99.90
1568;DHT22;777;47.156;8.326;2023-05-07T15:14:55;17.10;99.90
1568;DHT22;777;47.156;8.326;2023-05-07T15:17:22;17.10;99.90
1568;DHT22;777;47.156;8.326;2023-05-07T15:19:51;17.00;99.90
1568;DHT22;777;47.156;8.326;2023-05-07T15:22:18;16.80;99.90
1568;DHT22;777;47.156;8.326;2023-05-07T15:24:46;16.80;99.90
1568;DHT22;777;47.156;8.326;2023-05-07T15:27:14;16.70;99.90
1568;DHT22;777;47.156;8.326;2023-05-07T15:29:42;16.80;99.90
1568;DHT22;777;47.156;8.326;2023-05-07T15:32:09;16.80;99.90
1568;DHT22;777;47.156;8.326;2023-05-07T15:34:36;16.70;99.90
1568;DHT22;777;47.156;8.326;2023-05-07T15:37:05;16.50;99.90
1568;DHT22;777;47.156;8.326;2023-05-07T15:39:32;16.50;99.90
1568;DHT22;777;47.156;8.326;2023-05-07T15:41:59;16.50;99.90
1568;DHT22;777;47.156;8.326;2023-05-07T15:44:26;16.30;99.90
1568;DHT22;777;47.156;8.326;2023-05-07T15:46:56;16.10;99.90
1568;DHT22;777;47.156;8.326;2023-05-07T15:49:23;15.80;99.90
1568;DHT22;777;47.156;8.326;2023-05-07T15:51:50;15.40;99.90
1568;DHT22;777;47.156;8.326;2023-05-07T15:54:20;15.10;99.90
1568;DHT22;777;47.156;8.326;2023-05-07T15:56:48;14.70;99.90
1568;DHT22;777;47.156;8.326;2023-05-07T15:59:16;14.60;99.90
1568;DHT22;777;47.156;8.326;2023-05-07T16:01:43;14.60;99.90
1568;DHT22;777;47.156;8.326;2023-05-07T16:04:10;14.50;99.90
1568;DHT22;777;47.156;8.326;2023-05-07T16:06:37;14.50;99.90
1568;DHT22;777;47.156;8.326;2023-05-07T16:09:04;14.50;99.90
1568;DHT22;777;47.156;8.326;2023-05-07T16:11:36;14.50;99.90
1568;DHT22;777;47.156;8.326;2023-05-07T16:14:03;14.50;99.90
1568;DHT22;777;47.156;8.326;2023-05-07T16:16:32;14.50;99.90
1568;DHT22;777;47.156;8.326;2023-05-07T16:18:59;14.60;99.90
1568;DHT22;777;47.156;8.326;2023-05-07T16:21:26;14.60;99.90
1568;DHT22;777;47.156;8.326;2023-05-07T16:23:53;14.50;99.90
1568;DHT22;777;47.156;8.326;2023-05-07T16:26:20;14.50;99.90
1568;DHT22;777;47.156;8.326;2023-05-07T16:28:49;14.40;99.90
1568;DHT22;777;47.156;8.326;2023-05-07T16:31:16;14.30;99.90
1568;DHT22;777;47.156;8.326;2023-05-07T16:33:43;14.00;99.90